Flight Number: EUR2050 Duration: 3:30
Departure: Cairo Int'll Airport (HECA) at 18:15 Distance: 1416 Nm
Arrival: Munich Int'l (EDDM) at 21:45 Equipment: A340

Weather Information
Cairo Airport, Egypt (HECA) 30-08N 031-24E 74M Sep 21, 2017 - 05:00 PM EDT / 2017.09.21 2100 UTC
Wind: from the N (360 degrees) at 13 MPH (11 KT):0
Visibility: greater than 7 mile(s):0 Temperature: 80 F (27 C) Dew Point: 75 F (24 C) Relative Humidity: 83% Pressure (altimeter): 29.97 in. Hg (1015 hPa)
ob: HECA 212100Z 36011KT CAVOK 27/24 Q1015 NOSIG cycle: 21
Sunrise: 03:45 Sunset: 15:49 (UTC)

Munchen, Germany (EDDM) 48-21N 011-47E Sep 21, 2017 - 05:20 PM EDT / 2017.09.21 2120 UTC
Wind: from the NNE (030 degrees) at 2 MPH (2 KT):0
Visibility: greater than 7 mile(s):0 Weather: shallow fog Temperature: 42 F (6 C) Dew Point: 41 F (5 C) Relative Humidity: 93% Pressure (altimeter): 30.15 in. Hg (1021 hPa)
ob: EDDM 212120Z 03002KT 9999 MIFG NSC 06/05 Q1021 NOSIG cycle: 21
Sunrise: 05:02 Sunset: 17:08 (UTC)

TAF:2017/09/21 18:27 TAF EDDM 211700Z 2118/2224 VRB03KT CAVOK TEMPO 2200/2208 2000 BCFG PROB30 TEMPO 2202/2207 0400 FG TEMPO 2223/2224 2000 BCFG

Previous Pireps for this route
Date Aircraft Flight time Fuel used Landing rate On time
2012-07-17A3403.19441150Yes
2012-10-19A34004.1968703-331No
2013-08-22A34003.56106301-278No
2013-09-18A3405.21112120No
2016-03-05A34004.0290740-123No
2016-08-02B7773.3973181.80Yes
(pireps marked green are flown by you)

Route map